sensor_id;sensor_type;location;lat;lon;timestamp;P1;durP1;ratioP1;P2;durP2;ratioP2
40621;SDS011;26324;52.040;11.528;2023-08-06T00:01:23;2.83;;;0.90;;
40621;SDS011;26324;52.040;11.528;2023-08-06T00:03:52;1.58;;;1.00;;
40621;SDS011;26324;52.040;11.528;2023-08-06T00:06:19;2.47;;;0.80;;
40621;SDS011;26324;52.040;11.528;2023-08-06T00:08:47;1.08;;;0.50;;
40621;SDS011;26324;52.040;11.528;2023-08-06T00:11:14;1.45;;;0.70;;
40621;SDS011;26324;52.040;11.528;2023-08-06T00:13:42;1.98;;;0.73;;
40621;SDS011;26324;52.040;11.528;2023-08-06T00:16:10;1.35;;;0.73;;
40621;SDS011;26324;52.040;11.528;2023-08-06T00:18:38;0.80;;;0.57;;
40621;SDS011;26324;52.040;11.528;2023-08-06T00:21:06;1.42;;;0.68;;
40621;SDS011;26324;52.040;11.528;2023-08-06T00:23:33;1.77;;;0.70;;
40621;SDS011;26324;52.040;11.528;2023-08-06T00:26:01;1.17;;;0.60;;
40621;SDS011;26324;52.040;11.528;2023-08-06T00:28:28;1.20;;;0.70;;
40621;SDS011;26324;52.040;11.528;2023-08-06T00:30:56;1.83;;;0.80;;
40621;SDS011;26324;52.040;11.528;2023-08-06T00:33:23;0.82;;;0.60;;
40621;SDS011;26324;52.040;11.528;2023-08-06T00:35:51;0.75;;;0.52;;
40621;SDS011;26324;52.040;11.528;2023-08-06T00:38:19;0.90;;;0.55;;
40621;SDS011;26324;52.040;11.528;2023-08-06T00:40:47;1.00;;;0.55;;
40621;SDS011;26324;52.040;11.528;2023-08-06T00:43:15;1.85;;;0.65;;
40621;SDS011;26324;52.040;11.528;2023-08-06T00:45:43;2.95;;;0.80;;
40621;SDS011;26324;52.040;11.528;2023-08-06T00:48:10;1.73;;;1.00;;
40621;SDS011;26324;52.040;11.528;2023-08-06T00:50:38;2.15;;;0.77;;
40621;SDS011;26324;52.040;11.528;2023-08-06T00:53:08;1.33;;;0.60;;
40621;SDS011;26324;52.040;11.528;2023-08-06T00:55:35;2.50;;;1.00;;
40621;SDS011;26324;52.040;11.528;2023-08-06T00:58:03;1.27;;;0.70;;
40621;SDS011;26324;52.040;11.528;2023-08-06T01:00:31;1.77;;;0.80;;
40621;SDS011;26324;52.040;11.528;2023-08-06T01:02:59;2.00;;;0.63;;
40621;SDS011;26324;52.040;11.528;2023-08-06T01:05:27;1.67;;;0.60;;
40621;SDS011;26324;52.040;11.528;2023-08-06T01:13:54;1.58;;;0.65;;
40621;SDS011;26324;52.040;11.528;2023-08-06T01:16:29;1.02;;;0.57;;
40621;SDS011;26324;52.040;11.528;2023-08-06T01:18:58;1.67;;;0.90;;
40621;SDS011;26324;52.040;11.528;2023-08-06T01:21:26;0.65;;;0.40;;
40621;SDS011;26324;52.040;11.528;2023-08-06T01:23:54;1.30;;;0.85;;
40621;SDS011;26324;52.040;11.528;2023-08-06T01:26:33;1.15;;;0.80;;
40621;SDS011;26324;52.040;11.528;2023-08-06T01:29:12;1.10;;;0.70;;
40621;SDS011;26324;52.040;11.528;2023-08-06T01:31:57;2.00;;;0.77;;
40621;SDS011;26324;52.040;11.528;2023-08-06T01:34:28;1.38;;;1.02;;
40621;SDS011;26324;52.040;11.528;2023-08-06T01:36:58;2.40;;;1.20;;
40621;SDS011;26324;52.040;11.528;2023-08-06T01:39:27;1.45;;;0.80;;
40621;SDS011;26324;52.040;11.528;2023-08-06T01:41:55;2.53;;;0.80;;
40621;SDS011;26324;52.040;11.528;2023-08-06T01:44:23;2.75;;;1.00;;
40621;SDS011;26324;52.040;11.528;2023-08-06T01:46:50;1.17;;;0.80;;
40621;SDS011;26324;52.040;11.528;2023-08-06T01:49:18;1.25;;;0.63;;
40621;SDS011;26324;52.040;11.528;2023-08-06T01:51:46;1.83;;;0.70;;
40621;SDS011;26324;52.040;11.528;2023-08-06T01:54:14;0.98;;;0.70;;
40621;SDS011;26324;52.040;11.528;2023-08-06T01:56:41;1.65;;;0.90;;
40621;SDS011;26324;52.040;11.528;2023-08-06T01:59:08;2.85;;;1.00;;
40621;SDS011;26324;52.040;11.528;2023-08-06T02:01:36;2.70;;;1.00;;
40621;SDS011;26324;52.040;11.528;2023-08-06T02:04:03;2.25;;;0.75;;
40621;SDS011;26324;52.040;11.528;2023-08-06T02:06:34;2.83;;;1.00;;
40621;SDS011;26324;52.040;11.528;2023-08-06T02:09:01;1.75;;;0.90;;
40621;SDS011;26324;52.040;11.528;2023-08-06T02:11:29;3.95;;;1.08;;
40621;SDS011;26324;52.040;11.528;2023-08-06T02:13:56;1.98;;;0.80;;
40621;SDS011;26324;52.040;11.528;2023-08-06T02:16:23;1.08;;;0.80;;
40621;SDS011;26324;52.040;11.528;2023-08-06T02:18:51;2.15;;;0.85;;
40621;SDS011;26324;52.040;11.528;2023-08-06T02:21:18;1.45;;;0.80;;
40621;SDS011;26324;52.040;11.528;2023-08-06T02:23:46;1.05;;;0.60;;
40621;SDS011;26324;52.040;11.528;2023-08-06T02:26:13;2.42;;;0.80;;
40621;SDS011;26324;52.040;11.528;2023-08-06T02:28:40;1.50;;;1.00;;
40621;SDS011;26324;52.040;11.528;2023-08-06T02:31:08;1.65;;;0.70;;
40621;SDS011;26324;52.040;11.528;2023-08-06T02:36:13;1.65;;;0.90;;
40621;SDS011;26324;52.040;11.528;2023-08-06T02:38:40;1.77;;;0.95;;
40621;SDS011;26324;52.040;11.528;2023-08-06T02:41:08;1.98;;;1.08;;
40621;SDS011;26324;52.040;11.528;2023-08-06T02:43:35;3.40;;;1.20;;
40621;SDS011;26324;52.040;11.528;2023-08-06T02:46:03;1.45;;;0.88;;
40621;SDS011;26324;52.040;11.528;2023-08-06T02:48:30;1.15;;;0.90;;
40621;SDS011;26324;52.040;11.528;2023-08-06T02:50:58;2.22;;;0.95;;
40621;SDS011;26324;52.040;11.528;2023-08-06T02:53:28;1.23;;;0.77;;
40621;SDS011;26324;52.040;11.528;2023-08-06T02:55:57;1.85;;;0.90;;
40621;SDS011;26324;52.040;11.528;2023-08-06T02:58:34;2.40;;;1.17;;
40621;SDS011;26324;52.040;11.528;2023-08-06T03:01:09;1.80;;;1.05;;
40621;SDS011;26324;52.040;11.528;2023-08-06T03:03:50;2.30;;;1.00;;
40621;SDS011;26324;52.040;11.528;2023-08-06T03:06:23;1.08;;;0.55;;
40621;SDS011;26324;52.040;11.528;2023-08-06T03:08:53;1.20;;;0.98;;
40621;SDS011;26324;52.040;11.528;2023-08-06T03:11:21;1.67;;;1.00;;
40621;SDS011;26324;52.040;11.528;2023-08-06T03:13:52;1.45;;;1.02;;
40621;SDS011;26324;52.040;11.528;2023-08-06T03:16:20;2.20;;;1.00;;
40621;SDS011;26324;52.040;11.528;2023-08-06T03:18:58;1.55;;;0.80;;
40621;SDS011;26324;52.040;11.528;2023-08-06T03:21:25;1.27;;;0.75;;
40621;SDS011;26324;52.040;11.528;2023-08-06T03:23:53;2.08;;;1.08;;
40621;SDS011;26324;52.040;11.528;2023-08-06T03:26:23;1.70;;;1.05;;
40621;SDS011;26324;52.040;11.528;2023-08-06T03:28:51;1.90;;;1.27;;
40621;SDS011;26324;52.040;11.528;2023-08-06T03:31:19;2.80;;;1.10;;
40621;SDS011;26324;52.040;11.528;2023-08-06T03:33:47;1.17;;;0.70;;
40621;SDS011;26324;52.040;11.528;2023-08-06T03:36:18;1.50;;;0.80;;
40621;SDS011;26324;52.040;11.528;2023-08-06T03:38:46;2.88;;;1.13;;
40621;SDS011;26324;52.040;11.528;2023-08-06T03:41:14;1.80;;;1.00;;
40621;SDS011;26324;52.040;11.528;2023-08-06T03:43:44;5.72;;;1.80;;
40621;SDS011;26324;52.040;11.528;2023-08-06T03:46:18;3.28;;;1.05;;
40621;SDS011;26324;52.040;11.528;2023-08-06T03:48:46;2.22;;;1.17;;
40621;SDS011;26324;52.040;11.528;2023-08-06T03:51:13;2.95;;;1.08;;
40621;SDS011;26324;52.040;11.528;2023-08-06T03:53:43;2.97;;;1.27;;
40621;SDS011;26324;52.040;11.528;2023-08-06T03:56:11;2.60;;;0.98;;
40621;SDS011;26324;52.040;11.528;2023-08-06T03:58:39;2.53;;;0.98;;
40621;SDS011;26324;52.040;11.528;2023-08-06T04:01:07;2.47;;;1.35;;
40621;SDS011;26324;52.040;11.528;2023-08-06T04:03:42;5.30;;;1.10;;
40621;SDS011;26324;52.040;11.528;2023-08-06T04:06:12;1.33;;;0.80;;
40621;SDS011;26324;52.040;11.528;2023-08-06T04:08:40;1.80;;;1.13;;
40621;SDS011;26324;52.040;11.528;2023-08-06T04:11:07;1.98;;;0.90;;
40621;SDS011;26324;52.040;11.528;2023-08-06T04:13:35;2.10;;;1.10;;
40621;SDS011;26324;52.040;11.528;2023-08-06T04:16:02;4.47;;;1.52;;
40621;SDS011;26324;52.040;11.528;2023-08-06T04:18:31;2.17;;;0.88;;
40621;SDS011;26324;52.040;11.528;2023-08-06T04:20:59;1.80;;;0.98;;
40621;SDS011;26324;52.040;11.528;2023-08-06T04:23:28;3.25;;;1.15;;
40621;SDS011;26324;52.040;11.528;2023-08-06T04:25:59;1.92;;;0.85;;
40621;SDS011;26324;52.040;11.528;2023-08-06T04:28:31;1.80;;;1.00;;
40621;SDS011;26324;52.040;11.528;2023-08-06T04:30:59;2.63;;;1.10;;
40621;SDS011;26324;52.040;11.528;2023-08-06T04:33:28;2.28;;;1.02;;
40621;SDS011;26324;52.040;11.528;2023-08-06T04:35:59;1.80;;;1.10;;
40621;SDS011;26324;52.040;11.528;2023-08-06T04:38:27;2.60;;;1.20;;
40621;SDS011;26324;52.040;11.528;2023-08-06T04:40:58;2.17;;;1.33;;
40621;SDS011;26324;52.040;11.528;2023-08-06T04:43:26;3.10;;;1.25;;
40621;SDS011;26324;52.040;11.528;2023-08-06T04:45:54;2.90;;;1.30;;
40621;SDS011;26324;52.040;11.528;2023-08-06T04:48:22;4.65;;;1.30;;
40621;SDS011;26324;52.040;11.528;2023-08-06T04:50:50;2.47;;;1.45;;
40621;SDS011;26324;52.040;11.528;2023-08-06T04:53:18;1.88;;;1.15;;
40621;SDS011;26324;52.040;11.528;2023-08-06T04:55:45;2.47;;;1.27;;
40621;SDS011;26324;52.040;11.528;2023-08-06T04:58:13;1.67;;;1.08;;
40621;SDS011;26324;52.040;11.528;2023-08-06T05:00:40;1.98;;;1.17;;
40621;SDS011;26324;52.040;11.528;2023-08-06T05:03:08;2.85;;;1.15;;
40621;SDS011;26324;52.040;11.528;2023-08-06T05:05:35;1.90;;;1.15;;
40621;SDS011;26324;52.040;11.528;2023-08-06T05:08:04;2.30;;;1.10;;
40621;SDS011;26324;52.040;11.528;2023-08-06T05:10:32;2.03;;;1.20;;
40621;SDS011;26324;52.040;11.528;2023-08-06T05:12:59;1.77;;;1.13;;
40621;SDS011;26324;52.040;11.528;2023-08-06T05:15:27;2.83;;;0.93;;
40621;SDS011;26324;52.040;11.528;2023-08-06T05:17:55;1.73;;;1.05;;
40621;SDS011;26324;52.040;11.528;2023-08-06T05:20:22;2.33;;;1.08;;
40621;SDS011;26324;52.040;11.528;2023-08-06T05:22:49;2.85;;;1.38;;
40621;SDS011;26324;52.040;11.528;2023-08-06T05:25:18;2.03;;;1.20;;
40621;SDS011;26324;52.040;11.528;2023-08-06T05:27:52;2.88;;;1.25;;
40621;SDS011;26324;52.040;11.528;2023-08-06T05:30:20;2.80;;;1.27;;
40621;SDS011;26324;52.040;11.528;2023-08-06T05:32:47;4.78;;;1.48;;
40621;SDS011;26324;52.040;11.528;2023-08-06T05:35:14;3.88;;;1.40;;
40621;SDS011;26324;52.040;11.528;2023-08-06T05:37:42;2.72;;;1.17;;
40621;SDS011;26324;52.040;11.528;2023-08-06T05:40:09;1.88;;;1.10;;
40621;SDS011;26324;52.040;11.528;2023-08-06T05:42:37;3.28;;;1.27;;
40621;SDS011;26324;52.040;11.528;2023-08-06T05:45:04;4.60;;;1.27;;
40621;SDS011;26324;52.040;11.528;2023-08-06T05:47:32;1.52;;;1.00;;
40621;SDS011;26324;52.040;11.528;2023-08-06T05:49:59;3.55;;;1.45;;
40621;SDS011;26324;52.040;11.528;2023-08-06T05:52:27;2.42;;;1.27;;
40621;SDS011;26324;52.040;11.528;2023-08-06T05:54:54;2.47;;;1.02;;
40621;SDS011;26324;52.040;11.528;2023-08-06T05:57:22;2.47;;;1.60;;
40621;SDS011;26324;52.040;11.528;2023-08-06T05:59:49;4.88;;;0.98;;
40621;SDS011;26324;52.040;11.528;2023-08-06T06:02:16;3.20;;;1.38;;
40621;SDS011;26324;52.040;11.528;2023-08-06T06:04:45;2.63;;;1.20;;
40621;SDS011;26324;52.040;11.528;2023-08-06T06:07:13;2.80;;;1.30;;
40621;SDS011;26324;52.040;11.528;2023-08-06T06:09:41;1.73;;;1.02;;
40621;SDS011;26324;52.040;11.528;2023-08-06T06:12:08;2.40;;;1.27;;
40621;SDS011;26324;52.040;11.528;2023-08-06T06:14:35;2.38;;;1.50;;
40621;SDS011;26324;52.040;11.528;2023-08-06T06:17:03;2.83;;;1.40;;
40621;SDS011;26324;52.040;11.528;2023-08-06T06:19:30;2.30;;;1.45;;
40621;SDS011;26324;52.040;11.528;2023-08-06T06:21:58;4.38;;;1.40;;
40621;SDS011;26324;52.040;11.528;2023-08-06T06:24:25;2.88;;;1.38;;
40621;SDS011;26324;52.040;11.528;2023-08-06T06:26:52;2.85;;;1.73;;
40621;SDS011;26324;52.040;11.528;2023-08-06T06:29:20;1.98;;;1.35;;
40621;SDS011;26324;52.040;11.528;2023-08-06T06:31:47;2.90;;;1.60;;
40621;SDS011;26324;52.040;11.528;2023-08-06T06:34:14;2.25;;;1.20;;
40621;SDS011;26324;52.040;11.528;2023-08-06T06:36:42;3.33;;;1.80;;
40621;SDS011;26324;52.040;11.528;2023-08-06T06:39:13;2.88;;;1.77;;
40621;SDS011;26324;52.040;11.528;2023-08-06T06:41:42;3.20;;;1.75;;
40621;SDS011;26324;52.040;11.528;2023-08-06T06:44:22;3.10;;;1.40;;
40621;SDS011;26324;52.040;11.528;2023-08-06T06:46:49;3.75;;;1.60;;
40621;SDS011;26324;52.040;11.528;2023-08-06T06:49:17;2.60;;;1.38;;
40621;SDS011;26324;52.040;11.528;2023-08-06T06:51:52;3.35;;;1.35;;
40621;SDS011;26324;52.040;11.528;2023-08-06T06:54:20;2.42;;;1.40;;
40621;SDS011;26324;52.040;11.528;2023-08-06T06:56:54;2.60;;;1.40;;
40621;SDS011;26324;52.040;11.528;2023-08-06T06:59:22;2.45;;;1.67;;
40621;SDS011;26324;52.040;11.528;2023-08-06T07:01:50;3.00;;;1.25;;
40621;SDS011;26324;52.040;11.528;2023-08-06T07:04:22;1.83;;;1.33;;
40621;SDS011;26324;52.040;11.528;2023-08-06T07:06:51;2.60;;;1.20;;
40621;SDS011;26324;52.040;11.528;2023-08-06T07:09:19;3.00;;;1.50;;
40621;SDS011;26324;52.040;11.528;2023-08-06T07:11:47;2.08;;;1.50;;
40621;SDS011;26324;52.040;11.528;2023-08-06T07:14:14;1.95;;;1.10;;
40621;SDS011;26324;52.040;11.528;2023-08-06T07:16:44;1.77;;;1.10;;
40621;SDS011;26324;52.040;11.528;2023-08-06T07:19:11;1.90;;;1.25;;
40621;SDS011;26324;52.040;11.528;2023-08-06T07:21:39;2.38;;;1.38;;
40621;SDS011;26324;52.040;11.528;2023-08-06T07:24:07;1.75;;;1.10;;
40621;SDS011;26324;52.040;11.528;2023-08-06T07:29:22;3.30;;;1.40;;
40621;SDS011;26324;52.040;11.528;2023-08-06T07:31:50;1.38;;;1.00;;
40621;SDS011;26324;52.040;11.528;2023-08-06T07:34:18;2.05;;;1.20;;
40621;SDS011;26324;52.040;11.528;2023-08-06T07:36:46;2.35;;;1.27;;
40621;SDS011;26324;52.040;11.528;2023-08-06T07:41:45;2.47;;;1.00;;
40621;SDS011;26324;52.040;11.528;2023-08-06T07:44:13;2.05;;;1.20;;
40621;SDS011;26324;52.040;11.528;2023-08-06T07:49:10;2.50;;;0.98;;
40621;SDS011;26324;52.040;11.528;2023-08-06T07:51:38;1.80;;;1.20;;
40621;SDS011;26324;52.040;11.528;2023-08-06T07:54:08;1.75;;;1.10;;
40621;SDS011;26324;52.040;11.528;2023-08-06T07:56:36;2.40;;;1.10;;
40621;SDS011;26324;52.040;11.528;2023-08-06T07:59:03;1.70;;;0.90;;
40621;SDS011;26324;52.040;11.528;2023-08-06T08:01:31;2.00;;;1.10;;
40621;SDS011;26324;52.040;11.528;2023-08-06T08:03:58;3.00;;;0.93;;
40621;SDS011;26324;52.040;11.528;2023-08-06T08:06:41;3.60;;;1.00;;
40621;SDS011;26324;52.040;11.528;2023-08-06T08:09:09;1.20;;;0.68;;
40621;SDS011;26324;52.040;11.528;2023-08-06T08:11:36;2.08;;;1.13;;
40621;SDS011;26324;52.040;11.528;2023-08-06T08:14:04;1.73;;;0.82;;
40621;SDS011;26324;52.040;11.528;2023-08-06T08:16:31;2.53;;;1.33;;
40621;SDS011;26324;52.040;11.528;2023-08-06T08:18:59;1.83;;;0.90;;
40621;SDS011;26324;52.040;11.528;2023-08-06T08:21:27;1.48;;;0.80;;
40621;SDS011;26324;52.040;11.528;2023-08-06T08:23:56;1.35;;;0.80;;
40621;SDS011;26324;52.040;11.528;2023-08-06T08:26:25;1.35;;;0.80;;
40621;SDS011;26324;52.040;11.528;2023-08-06T08:28:55;2.20;;;0.93;;
40621;SDS011;26324;52.040;11.528;2023-08-06T08:31:25;2.42;;;1.10;;
40621;SDS011;26324;52.040;11.528;2023-08-06T08:33:56;5.88;;;1.27;;
40621;SDS011;26324;52.040;11.528;2023-08-06T08:36:26;1.58;;;1.13;;
40621;SDS011;26324;52.040;11.528;2023-08-06T08:38:53;1.92;;;1.15;;
40621;SDS011;26324;52.040;11.528;2023-08-06T08:41:21;1.88;;;0.90;;
40621;SDS011;26324;52.040;11.528;2023-08-06T08:43:49;1.50;;;0.95;;
40621;SDS011;26324;52.040;11.528;2023-08-06T08:46:19;1.45;;;0.80;;
40621;SDS011;26324;52.040;11.528;2023-08-06T08:48:47;1.17;;;0.70;;
40621;SDS011;26324;52.040;11.528;2023-08-06T08:51:15;1.98;;;0.80;;
40621;SDS011;26324;52.040;11.528;2023-08-06T08:53:44;1.58;;;1.10;;
40621;SDS011;26324;52.040;11.528;2023-08-06T08:56:13;1.58;;;0.90;;
40621;SDS011;26324;52.040;11.528;2023-08-06T08:58:41;1.92;;;0.90;;
40621;SDS011;26324;52.040;11.528;2023-08-06T09:01:08;1.17;;;0.85;;
40621;SDS011;26324;52.040;11.528;2023-08-06T09:03:36;0.95;;;0.80;;
40621;SDS011;26324;52.040;11.528;2023-08-06T09:06:07;1.60;;;0.70;;
40621;SDS011;26324;52.040;11.528;2023-08-06T09:08:42;1.05;;;0.80;;
40621;SDS011;26324;52.040;11.528;2023-08-06T09:11:15;1.00;;;0.70;;
40621;SDS011;26324;52.040;11.528;2023-08-06T09:13:43;1.50;;;0.80;;
40621;SDS011;26324;52.040;11.528;2023-08-06T09:16:11;0.80;;;0.60;;
40621;SDS011;26324;52.040;11.528;2023-08-06T09:18:39;1.20;;;0.75;;
40621;SDS011;26324;52.040;11.528;2023-08-06T09:21:07;1.10;;;0.90;;
40621;SDS011;26324;52.040;11.528;2023-08-06T09:23:41;1.13;;;0.80;;
40621;SDS011;26324;52.040;11.528;2023-08-06T09:26:10;1.38;;;0.60;;
40621;SDS011;26324;52.040;11.528;2023-08-06T09:28:42;1.70;;;0.80;;
40621;SDS011;26324;52.040;11.528;2023-08-06T09:31:10;1.33;;;0.60;;
40621;SDS011;26324;52.040;11.528;2023-08-06T09:33:37;1.13;;;0.68;;
40621;SDS011;26324;52.040;11.528;2023-08-06T09:36:09;1.80;;;0.77;;
40621;SDS011;26324;52.040;11.528;2023-08-06T09:38:37;1.55;;;0.43;;
40621;SDS011;26324;52.040;11.528;2023-08-06T09:41:07;0.90;;;0.68;;
40621;SDS011;26324;52.040;11.528;2023-08-06T09:43:44;2.15;;;0.68;;
40621;SDS011;26324;52.040;11.528;2023-08-06T09:46:11;1.20;;;0.80;;
40621;SDS011;26324;52.040;11.528;2023-08-06T09:48:46;1.00;;;0.70;;
40621;SDS011;26324;52.040;11.528;2023-08-06T09:51:13;1.55;;;0.88;;
40621;SDS011;26324;52.040;11.528;2023-08-06T09:53:42;1.10;;;0.70;;
40621;SDS011;26324;52.040;11.528;2023-08-06T09:56:09;1.40;;;0.70;;
40621;SDS011;26324;52.040;11.528;2023-08-06T09:58:41;1.10;;;0.73;;
40621;SDS011;26324;52.040;11.528;2023-08-06T10:01:10;1.90;;;0.98;;
40621;SDS011;26324;52.040;11.528;2023-08-06T10:03:39;1.45;;;0.80;;
40621;SDS011;26324;52.040;11.528;2023-08-06T10:06:09;0.95;;;0.55;;
40621;SDS011;26324;52.040;11.528;2023-08-06T10:08:39;0.68;;;0.40;;
40621;SDS011;26324;52.040;11.528;2023-08-06T10:11:08;0.50;;;0.40;;
40621;SDS011;26324;52.040;11.528;2023-08-06T10:13:37;0.90;;;0.60;;
40621;SDS011;26324;52.040;11.528;2023-08-06T10:16:05;0.77;;;0.60;;
40621;SDS011;26324;52.040;11.528;2023-08-06T10:18:33;0.98;;;0.60;;
40621;SDS011;26324;52.040;11.528;2023-08-06T10:21:07;0.77;;;0.52;;
40621;SDS011;26324;52.040;11.528;2023-08-06T10:23:36;0.75;;;0.45;;
40621;SDS011;26324;52.040;11.528;2023-08-06T10:26:05;0.80;;;0.70;;
40621;SDS011;26324;52.040;11.528;2023-08-06T10:28:36;0.98;;;0.77;;
40621;SDS011;26324;52.040;11.528;2023-08-06T10:31:06;0.77;;;0.68;;
40621;SDS011;26324;52.040;11.528;2023-08-06T10:33:44;0.77;;;0.60;;
40621;SDS011;26324;52.040;11.528;2023-08-06T10:36:14;1.20;;;0.70;;
40621;SDS011;26324;52.040;11.528;2023-08-06T10:38:45;0.88;;;0.55;;
40621;SDS011;26324;52.040;11.528;2023-08-06T10:41:15;1.23;;;0.60;;
40621;SDS011;26324;52.040;11.528;2023-08-06T10:43:48;1.05;;;0.60;;
40621;SDS011;26324;52.040;11.528;2023-08-06T10:46:28;1.33;;;0.77;;
40621;SDS011;26324;52.040;11.528;2023-08-06T10:48:56;0.85;;;0.65;;
40621;SDS011;26324;52.040;11.528;2023-08-06T10:51:23;0.90;;;0.70;;
40621;SDS011;26324;52.040;11.528;2023-08-06T10:53:51;0.98;;;0.70;;
40621;SDS011;26324;52.040;11.528;2023-08-06T10:56:19;1.23;;;0.80;;
40621;SDS011;26324;52.040;11.528;2023-08-06T10:58:56;1.02;;;0.60;;
40621;SDS011;26324;52.040;11.528;2023-08-06T11:01:24;0.63;;;0.60;;
40621;SDS011;26324;52.040;11.528;2023-08-06T11:03:55;1.23;;;0.85;;
40621;SDS011;26324;52.040;11.528;2023-08-06T11:06:28;1.10;;;0.77;;
40621;SDS011;26324;52.040;11.528;2023-08-06T11:08:55;0.85;;;0.70;;
40621;SDS011;26324;52.040;11.528;2023-08-06T11:11:23;1.65;;;0.90;;
40621;SDS011;26324;52.040;11.528;2023-08-06T11:13:51;1.00;;;0.70;;
40621;SDS011;26324;52.040;11.528;2023-08-06T11:16:20;2.00;;;1.08;;
40621;SDS011;26324;52.040;11.528;2023-08-06T11:18:50;1.40;;;0.95;;
40621;SDS011;26324;52.040;11.528;2023-08-06T11:21:20;1.95;;;0.90;;
40621;SDS011;26324;52.040;11.528;2023-08-06T11:23:48;1.83;;;0.80;;
40621;SDS011;26324;52.040;11.528;2023-08-06T11:26:19;1.23;;;0.90;;
40621;SDS011;26324;52.040;11.528;2023-08-06T11:28:47;1.38;;;0.90;;
40621;SDS011;26324;52.040;11.528;2023-08-06T11:31:24;1.33;;;0.90;;
40621;SDS011;26324;52.040;11.528;2023-08-06T11:33:52;1.00;;;0.85;;
40621;SDS011;26324;52.040;11.528;2023-08-06T11:36:33;1.88;;;1.15;;
40621;SDS011;26324;52.040;11.528;2023-08-06T11:39:03;1.25;;;0.90;;
40621;SDS011;26324;52.040;11.528;2023-08-06T11:41:33;1.45;;;1.00;;
40621;SDS011;26324;52.040;11.528;2023-08-06T11:44:04;1.10;;;0.90;;
40621;SDS011;26324;52.040;11.528;2023-08-06T11:46:51;2.15;;;1.23;;
40621;SDS011;26324;52.040;11.528;2023-08-06T11:49:19;2.38;;;1.30;;
40621;SDS011;26324;52.040;11.528;2023-08-06T11:51:48;1.67;;;1.20;;
40621;SDS011;26324;52.040;11.528;2023-08-06T11:54:16;2.13;;;1.52;;
40621;SDS011;26324;52.040;11.528;2023-08-06T11:56:43;2.95;;;1.73;;
40621;SDS011;26324;52.040;11.528;2023-08-06T11:59:13;2.42;;;1.40;;
40621;SDS011;26324;52.040;11.528;2023-08-06T12:01:40;1.65;;;1.55;;
40621;SDS011;26324;52.040;11.528;2023-08-06T12:04:08;2.13;;;1.42;;
40621;SDS011;26324;52.040;11.528;2023-08-06T12:06:41;2.38;;;1.40;;
40621;SDS011;26324;52.040;11.528;2023-08-06T12:09:10;2.67;;;1.50;;
40621;SDS011;26324;52.040;11.528;2023-08-06T12:11:37;2.08;;;1.20;;
40621;SDS011;26324;52.040;11.528;2023-08-06T12:14:05;1.73;;;1.15;;
40621;SDS011;26324;52.040;11.528;2023-08-06T12:16:32;1.70;;;0.90;;
40621;SDS011;26324;52.040;11.528;2023-08-06T12:18:59;1.48;;;0.93;;
40621;SDS011;26324;52.040;11.528;2023-08-06T12:21:27;2.05;;;1.10;;
40621;SDS011;26324;52.040;11.528;2023-08-06T12:23:55;2.45;;;1.15;;
40621;SDS011;26324;52.040;11.528;2023-08-06T12:26:22;3.65;;;2.00;;
40621;SDS011;26324;52.040;11.528;2023-08-06T12:28:49;3.25;;;2.33;;
40621;SDS011;26324;52.040;11.528;2023-08-06T12:31:17;3.55;;;2.05;;
40621;SDS011;26324;52.040;11.528;2023-08-06T12:33:45;2.75;;;1.77;;
40621;SDS011;26324;52.040;11.528;2023-08-06T12:38:40;2.13;;;1.85;;
40621;SDS011;26324;52.040;11.528;2023-08-06T12:41:07;2.22;;;1.80;;
40621;SDS011;26324;52.040;11.528;2023-08-06T12:43:34;2.65;;;1.95;;
40621;SDS011;26324;52.040;11.528;2023-08-06T12:46:02;1.98;;;1.58;;
40621;SDS011;26324;52.040;11.528;2023-08-06T12:48:31;3.47;;;1.73;;
40621;SDS011;26324;52.040;11.528;2023-08-06T12:50:58;4.47;;;1.90;;
40621;SDS011;26324;52.040;11.528;2023-08-06T12:53:27;2.88;;;1.52;;
40621;SDS011;26324;52.040;11.528;2023-08-06T12:55:54;2.15;;;1.50;;
40621;SDS011;26324;52.040;11.528;2023-08-06T12:58:22;2.58;;;1.45;;
40621;SDS011;26324;52.040;11.528;2023-08-06T13:00:49;2.40;;;1.50;;
40621;SDS011;26324;52.040;11.528;2023-08-06T13:03:16;2.20;;;1.48;;
40621;SDS011;26324;52.040;11.528;2023-08-06T13:05:44;2.22;;;1.70;;
40621;SDS011;26324;52.040;11.528;2023-08-06T13:08:12;2.13;;;1.70;;
40621;SDS011;26324;52.040;11.528;2023-08-06T13:10:39;1.85;;;1.63;;
40621;SDS011;26324;52.040;11.528;2023-08-06T13:13:06;2.05;;;1.40;;
40621;SDS011;26324;52.040;11.528;2023-08-06T13:15:34;1.58;;;1.27;;
40621;SDS011;26324;52.040;11.528;2023-08-06T13:18:01;2.35;;;1.40;;
40621;SDS011;26324;52.040;11.528;2023-08-06T13:20:30;1.73;;;1.05;;
40621;SDS011;26324;52.040;11.528;2023-08-06T13:22:58;1.92;;;1.00;;
40621;SDS011;26324;52.040;11.528;2023-08-06T13:25:27;2.17;;;1.25;;
40621;SDS011;26324;52.040;11.528;2023-08-06T13:27:55;1.45;;;1.00;;
40621;SDS011;26324;52.040;11.528;2023-08-06T13:30:22;1.20;;;1.00;;
40621;SDS011;26324;52.040;11.528;2023-08-06T13:32:50;1.35;;;0.98;;
40621;SDS011;26324;52.040;11.528;2023-08-06T13:35:17;1.73;;;0.88;;
40621;SDS011;26324;52.040;11.528;2023-08-06T13:37:45;2.38;;;1.00;;
40621;SDS011;26324;52.040;11.528;2023-08-06T13:40:14;1.38;;;0.82;;
40621;SDS011;26324;52.040;11.528;2023-08-06T13:42:42;1.90;;;1.33;;
40621;SDS011;26324;52.040;11.528;2023-08-06T13:45:10;1.67;;;1.17;;
40621;SDS011;26324;52.040;11.528;2023-08-06T13:47:37;2.47;;;1.55;;
40621;SDS011;26324;52.040;11.528;2023-08-06T13:50:05;1.83;;;1.38;;
40621;SDS011;26324;52.040;11.528;2023-08-06T13:52:32;1.67;;;1.35;;
40621;SDS011;26324;52.040;11.528;2023-08-06T13:55:02;2.08;;;1.30;;
40621;SDS011;26324;52.040;11.528;2023-08-06T13:57:31;1.95;;;1.55;;
40621;SDS011;26324;52.040;11.528;2023-08-06T13:59:58;2.35;;;1.48;;
40621;SDS011;26324;52.040;11.528;2023-08-06T14:02:26;2.75;;;1.35;;
40621;SDS011;26324;52.040;11.528;2023-08-06T14:04:53;3.00;;;1.30;;
40621;SDS011;26324;52.040;11.528;2023-08-06T14:07:21;1.67;;;1.30;;
40621;SDS011;26324;52.040;11.528;2023-08-06T14:09:48;1.70;;;1.20;;
40621;SDS011;26324;52.040;11.528;2023-08-06T14:12:16;1.60;;;1.10;;
40621;SDS011;26324;52.040;11.528;2023-08-06T14:14:43;2.20;;;1.10;;
40621;SDS011;26324;52.040;11.528;2023-08-06T14:17:11;1.98;;;1.10;;
40621;SDS011;26324;52.040;11.528;2023-08-06T14:19:38;1.70;;;1.35;;
40621;SDS011;26324;52.040;11.528;2023-08-06T14:22:06;1.52;;;1.20;;
40621;SDS011;26324;52.040;11.528;2023-08-06T14:24:33;1.77;;;1.10;;
40621;SDS011;26324;52.040;11.528;2023-08-06T14:27:01;2.13;;;1.42;;
40621;SDS011;26324;52.040;11.528;2023-08-06T14:29:30;1.63;;;1.20;;
40621;SDS011;26324;52.040;11.528;2023-08-06T14:31:57;1.55;;;1.20;;
40621;SDS011;26324;52.040;11.528;2023-08-06T14:34:25;1.85;;;1.40;;
40621;SDS011;26324;52.040;11.528;2023-08-06T14:36:52;2.10;;;1.20;;
40621;SDS011;26324;52.040;11.528;2023-08-06T14:39:20;2.22;;;1.38;;
40621;SDS011;26324;52.040;11.528;2023-08-06T14:41:47;2.65;;;1.20;;
40621;SDS011;26324;52.040;11.528;2023-08-06T14:44:15;2.42;;;1.20;;
40621;SDS011;26324;52.040;11.528;2023-08-06T14:46:42;1.67;;;1.15;;
40621;SDS011;26324;52.040;11.528;2023-08-06T14:49:09;2.22;;;1.15;;
40621;SDS011;26324;52.040;11.528;2023-08-06T14:51:37;2.83;;;1.48;;
40621;SDS011;26324;52.040;11.528;2023-08-06T14:54:05;2.03;;;1.10;;
40621;SDS011;26324;52.040;11.528;2023-08-06T14:56:33;1.52;;;1.10;;
40621;SDS011;26324;52.040;11.528;2023-08-06T14:59:00;1.60;;;1.10;;
40621;SDS011;26324;52.040;11.528;2023-08-06T15:01:28;2.15;;;1.15;;